sensor_id;sensor_type;location;lat;lon;timestamp;P1;durP1;ratioP1;P2;durP2;ratioP2
21289;SDS011;10804;48.988;2.408;2024-03-08T00:02:14;0.10;;;0.10;;
21289;SDS011;10804;48.988;2.408;2024-03-08T00:04:42;0.10;;;0.10;;
21289;SDS011;10804;48.988;2.408;2024-03-08T00:07:10;0.10;;;0.10;;
21289;SDS011;10804;48.988;2.408;2024-03-08T00:09:39;0.05;;;0.05;;
21289;SDS011;10804;48.988;2.408;2024-03-08T00:12:08;0.10;;;0.10;;
21289;SDS011;10804;48.988;2.408;2024-03-08T00:14:35;0.10;;;0.10;;
21289;SDS011;10804;48.988;2.408;2024-03-08T00:17:04;0.10;;;0.10;;
21289;SDS011;10804;48.988;2.408;2024-03-08T00:19:31;0.10;;;0.10;;
21289;SDS011;10804;48.988;2.408;2024-03-08T00:21:58;0.10;;;0.10;;
21289;SDS011;10804;48.988;2.408;2024-03-08T00:24:26;0.10;;;0.10;;
21289;SDS011;10804;48.988;2.408;2024-03-08T00:26:55;0.10;;;0.10;;
21289;SDS011;10804;48.988;2.408;2024-03-08T00:29:23;0.00;;;0.00;;
21289;SDS011;10804;48.988;2.408;2024-03-08T00:31:51;0.10;;;0.10;;
21289;SDS011;10804;48.988;2.408;2024-03-08T00:34:18;0.10;;;0.10;;
21289;SDS011;10804;48.988;2.408;2024-03-08T00:36:45;0.10;;;0.10;;
21289;SDS011;10804;48.988;2.408;2024-03-08T00:39:13;0.10;;;0.10;;
21289;SDS011;10804;48.988;2.408;2024-03-08T00:41:40;0.10;;;0.10;;
21289;SDS011;10804;48.988;2.408;2024-03-08T00:44:08;0.10;;;0.10;;
21289;SDS011;10804;48.988;2.408;2024-03-08T00:46:37;0.10;;;0.10;;
21289;SDS011;10804;48.988;2.408;2024-03-08T00:49:04;0.10;;;0.10;;
21289;SDS011;10804;48.988;2.408;2024-03-08T00:51:32;0.10;;;0.10;;
21289;SDS011;10804;48.988;2.408;2024-03-08T00:54:02;0.10;;;0.10;;
21289;SDS011;10804;48.988;2.408;2024-03-08T00:56:29;0.10;;;0.10;;
21289;SDS011;10804;48.988;2.408;2024-03-08T00:58:56;0.10;;;0.10;;
21289;SDS011;10804;48.988;2.408;2024-03-08T01:01:25;0.10;;;0.10;;
21289;SDS011;10804;48.988;2.408;2024-03-08T01:03:54;0.10;;;0.10;;
21289;SDS011;10804;48.988;2.408;2024-03-08T01:06:22;0.10;;;0.10;;
21289;SDS011;10804;48.988;2.408;2024-03-08T01:08:50;0.10;;;0.10;;
21289;SDS011;10804;48.988;2.408;2024-03-08T01:11:18;0.00;;;0.00;;
21289;SDS011;10804;48.988;2.408;2024-03-08T01:13:46;0.10;;;0.10;;
21289;SDS011;10804;48.988;2.408;2024-03-08T01:16:13;0.10;;;0.10;;
21289;SDS011;10804;48.988;2.408;2024-03-08T01:18:40;0.10;;;0.10;;
21289;SDS011;10804;48.988;2.408;2024-03-08T01:21:09;0.10;;;0.10;;
21289;SDS011;10804;48.988;2.408;2024-03-08T01:23:36;0.10;;;0.10;;
21289;SDS011;10804;48.988;2.408;2024-03-08T01:26:07;0.10;;;0.10;;
21289;SDS011;10804;48.988;2.408;2024-03-08T01:28:35;0.00;;;0.00;;
21289;SDS011;10804;48.988;2.408;2024-03-08T01:31:02;0.10;;;0.10;;
21289;SDS011;10804;48.988;2.408;2024-03-08T01:33:30;0.10;;;0.10;;
21289;SDS011;10804;48.988;2.408;2024-03-08T01:35:57;0.10;;;0.10;;
21289;SDS011;10804;48.988;2.408;2024-03-08T01:38:26;0.10;;;0.10;;
21289;SDS011;10804;48.988;2.408;2024-03-08T01:40:53;0.10;;;0.10;;
21289;SDS011;10804;48.988;2.408;2024-03-08T01:43:21;0.00;;;0.00;;
21289;SDS011;10804;48.988;2.408;2024-03-08T01:45:49;0.10;;;0.10;;
21289;SDS011;10804;48.988;2.408;2024-03-08T01:48:17;0.10;;;0.10;;
21289;SDS011;10804;48.988;2.408;2024-03-08T01:50:45;0.10;;;0.10;;
21289;SDS011;10804;48.988;2.408;2024-03-08T01:53:12;0.10;;;0.10;;
21289;SDS011;10804;48.988;2.408;2024-03-08T01:55:42;0.10;;;0.10;;
21289;SDS011;10804;48.988;2.408;2024-03-08T01:58:11;0.10;;;0.10;;
21289;SDS011;10804;48.988;2.408;2024-03-08T02:00:41;0.10;;;0.10;;
21289;SDS011;10804;48.988;2.408;2024-03-08T02:03:10;0.10;;;0.10;;
21289;SDS011;10804;48.988;2.408;2024-03-08T02:05:38;0.10;;;0.10;;
21289;SDS011;10804;48.988;2.408;2024-03-08T02:08:07;0.10;;;0.10;;
21289;SDS011;10804;48.988;2.408;2024-03-08T02:10:38;0.10;;;0.10;;
21289;SDS011;10804;48.988;2.408;2024-03-08T02:13:09;0.10;;;0.10;;
21289;SDS011;10804;48.988;2.408;2024-03-08T02:15:49;0.10;;;0.10;;
21289;SDS011;10804;48.988;2.408;2024-03-08T02:18:17;0.10;;;0.10;;
21289;SDS011;10804;48.988;2.408;2024-03-08T02:20:46;0.10;;;0.10;;
21289;SDS011;10804;48.988;2.408;2024-03-08T02:23:14;0.10;;;0.10;;
21289;SDS011;10804;48.988;2.408;2024-03-08T02:25:41;0.10;;;0.10;;
21289;SDS011;10804;48.988;2.408;2024-03-08T02:28:09;0.08;;;0.08;;
21289;SDS011;10804;48.988;2.408;2024-03-08T02:30:38;0.00;;;0.00;;
21289;SDS011;10804;48.988;2.408;2024-03-08T02:33:06;0.10;;;0.10;;
21289;SDS011;10804;48.988;2.408;2024-03-08T02:35:35;0.10;;;0.10;;
21289;SDS011;10804;48.988;2.408;2024-03-08T02:38:04;0.10;;;0.10;;
21289;SDS011;10804;48.988;2.408;2024-03-08T02:40:31;0.10;;;0.10;;
21289;SDS011;10804;48.988;2.408;2024-03-08T02:42:59;0.10;;;0.10;;
21289;SDS011;10804;48.988;2.408;2024-03-08T02:45:26;0.10;;;0.10;;
21289;SDS011;10804;48.988;2.408;2024-03-08T02:47:53;0.10;;;0.10;;
21289;SDS011;10804;48.988;2.408;2024-03-08T02:50:21;0.10;;;0.10;;
21289;SDS011;10804;48.988;2.408;2024-03-08T02:52:49;0.00;;;0.00;;
21289;SDS011;10804;48.988;2.408;2024-03-08T02:55:18;0.10;;;0.10;;
21289;SDS011;10804;48.988;2.408;2024-03-08T02:57:46;0.10;;;0.10;;
21289;SDS011;10804;48.988;2.408;2024-03-08T03:00:14;0.10;;;0.10;;
21289;SDS011;10804;48.988;2.408;2024-03-08T03:02:41;0.10;;;0.10;;
21289;SDS011;10804;48.988;2.408;2024-03-08T03:05:09;0.10;;;0.10;;
21289;SDS011;10804;48.988;2.408;2024-03-08T03:07:37;0.10;;;0.10;;
21289;SDS011;10804;48.988;2.408;2024-03-08T03:10:05;0.10;;;0.10;;
21289;SDS011;10804;48.988;2.408;2024-03-08T03:12:35;0.10;;;0.10;;
21289;SDS011;10804;48.988;2.408;2024-03-08T03:15:03;0.10;;;0.10;;
21289;SDS011;10804;48.988;2.408;2024-03-08T03:17:32;0.10;;;0.10;;
21289;SDS011;10804;48.988;2.408;2024-03-08T03:19:59;0.10;;;0.10;;
21289;SDS011;10804;48.988;2.408;2024-03-08T03:22:30;0.10;;;0.10;;
21289;SDS011;10804;48.988;2.408;2024-03-08T03:24:58;0.10;;;0.10;;
21289;SDS011;10804;48.988;2.408;2024-03-08T03:27:26;0.10;;;0.10;;
21289;SDS011;10804;48.988;2.408;2024-03-08T03:29:55;0.10;;;0.10;;
21289;SDS011;10804;48.988;2.408;2024-03-08T03:32:24;0.10;;;0.10;;
21289;SDS011;10804;48.988;2.408;2024-03-08T03:34:51;0.10;;;0.10;;
21289;SDS011;10804;48.988;2.408;2024-03-08T03:37:18;0.10;;;0.10;;
21289;SDS011;10804;48.988;2.408;2024-03-08T03:39:46;0.10;;;0.10;;
21289;SDS011;10804;48.988;2.408;2024-03-08T03:42:15;0.10;;;0.10;;
21289;SDS011;10804;48.988;2.408;2024-03-08T03:44:44;0.10;;;0.10;;
21289;SDS011;10804;48.988;2.408;2024-03-08T03:47:12;0.10;;;0.10;;
21289;SDS011;10804;48.988;2.408;2024-03-08T03:49:40;0.10;;;0.10;;
21289;SDS011;10804;48.988;2.408;2024-03-08T03:52:11;0.10;;;0.10;;
21289;SDS011;10804;48.988;2.408;2024-03-08T03:54:41;0.10;;;0.10;;
21289;SDS011;10804;48.988;2.408;2024-03-08T03:57:09;0.10;;;0.10;;
21289;SDS011;10804;48.988;2.408;2024-03-08T03:59:38;0.10;;;0.10;;
21289;SDS011;10804;48.988;2.408;2024-03-08T04:02:05;0.10;;;0.10;;
21289;SDS011;10804;48.988;2.408;2024-03-08T04:04:34;0.10;;;0.10;;
21289;SDS011;10804;48.988;2.408;2024-03-08T04:07:01;0.10;;;0.10;;
21289;SDS011;10804;48.988;2.408;2024-03-08T04:09:29;0.10;;;0.10;;
21289;SDS011;10804;48.988;2.408;2024-03-08T04:11:56;0.10;;;0.10;;
21289;SDS011;10804;48.988;2.408;2024-03-08T04:14:23;0.10;;;0.10;;
21289;SDS011;10804;48.988;2.408;2024-03-08T04:16:51;0.10;;;0.10;;
21289;SDS011;10804;48.988;2.408;2024-03-08T04:19:18;0.10;;;0.10;;
21289;SDS011;10804;48.988;2.408;2024-03-08T04:21:47;0.10;;;0.10;;
21289;SDS011;10804;48.988;2.408;2024-03-08T04:24:17;0.10;;;0.10;;
21289;SDS011;10804;48.988;2.408;2024-03-08T04:26:45;0.10;;;0.10;;
21289;SDS011;10804;48.988;2.408;2024-03-08T04:29:13;0.10;;;0.10;;
21289;SDS011;10804;48.988;2.408;2024-03-08T04:31:43;0.10;;;0.10;;
21289;SDS011;10804;48.988;2.408;2024-03-08T04:34:10;0.10;;;0.10;;
21289;SDS011;10804;48.988;2.408;2024-03-08T04:36:38;0.10;;;0.10;;
21289;SDS011;10804;48.988;2.408;2024-03-08T04:39:06;0.10;;;0.10;;
21289;SDS011;10804;48.988;2.408;2024-03-08T04:41:38;0.10;;;0.10;;
21289;SDS011;10804;48.988;2.408;2024-03-08T04:44:06;0.10;;;0.10;;
21289;SDS011;10804;48.988;2.408;2024-03-08T04:46:33;0.10;;;0.10;;
21289;SDS011;10804;48.988;2.408;2024-03-08T04:49:01;0.10;;;0.10;;
21289;SDS011;10804;48.988;2.408;2024-03-08T04:51:29;0.10;;;0.10;;
21289;SDS011;10804;48.988;2.408;2024-03-08T04:53:56;0.10;;;0.10;;
21289;SDS011;10804;48.988;2.408;2024-03-08T04:56:26;0.10;;;0.10;;
21289;SDS011;10804;48.988;2.408;2024-03-08T04:58:54;0.10;;;0.10;;
21289;SDS011;10804;48.988;2.408;2024-03-08T05:01:21;0.10;;;0.10;;
21289;SDS011;10804;48.988;2.408;2024-03-08T05:03:48;0.10;;;0.10;;
21289;SDS011;10804;48.988;2.408;2024-03-08T05:06:16;0.10;;;0.10;;
21289;SDS011;10804;48.988;2.408;2024-03-08T05:08:46;0.10;;;0.10;;
21289;SDS011;10804;48.988;2.408;2024-03-08T05:11:13;0.10;;;0.10;;
21289;SDS011;10804;48.988;2.408;2024-03-08T05:13:42;0.10;;;0.10;;
21289;SDS011;10804;48.988;2.408;2024-03-08T05:16:11;0.10;;;0.10;;
21289;SDS011;10804;48.988;2.408;2024-03-08T05:18:41;0.10;;;0.10;;
21289;SDS011;10804;48.988;2.408;2024-03-08T05:21:09;0.10;;;0.10;;
21289;SDS011;10804;48.988;2.408;2024-03-08T05:23:36;0.10;;;0.10;;
21289;SDS011;10804;48.988;2.408;2024-03-08T05:26:04;0.13;;;0.13;;
21289;SDS011;10804;48.988;2.408;2024-03-08T05:28:31;0.10;;;0.10;;
21289;SDS011;10804;48.988;2.408;2024-03-08T05:31:00;0.10;;;0.10;;
21289;SDS011;10804;48.988;2.408;2024-03-08T05:33:27;0.10;;;0.10;;
21289;SDS011;10804;48.988;2.408;2024-03-08T05:35:55;0.10;;;0.10;;
21289;SDS011;10804;48.988;2.408;2024-03-08T05:38:22;0.10;;;0.10;;
21289;SDS011;10804;48.988;2.408;2024-03-08T05:40:50;0.10;;;0.10;;
21289;SDS011;10804;48.988;2.408;2024-03-08T05:43:18;0.05;;;0.05;;
21289;SDS011;10804;48.988;2.408;2024-03-08T05:45:45;0.10;;;0.10;;
21289;SDS011;10804;48.988;2.408;2024-03-08T05:48:14;0.10;;;0.10;;
21289;SDS011;10804;48.988;2.408;2024-03-08T05:50:43;0.10;;;0.10;;
21289;SDS011;10804;48.988;2.408;2024-03-08T05:53:10;0.10;;;0.10;;
21289;SDS011;10804;48.988;2.408;2024-03-08T05:55:38;0.10;;;0.10;;
21289;SDS011;10804;48.988;2.408;2024-03-08T05:58:06;0.10;;;0.10;;
21289;SDS011;10804;48.988;2.408;2024-03-08T06:00:34;0.10;;;0.10;;
21289;SDS011;10804;48.988;2.408;2024-03-08T06:03:02;0.10;;;0.10;;
21289;SDS011;10804;48.988;2.408;2024-03-08T06:05:31;0.10;;;0.10;;
21289;SDS011;10804;48.988;2.408;2024-03-08T06:07:59;0.10;;;0.10;;
21289;SDS011;10804;48.988;2.408;2024-03-08T06:10:26;0.10;;;0.10;;
21289;SDS011;10804;48.988;2.408;2024-03-08T06:12:54;0.10;;;0.10;;
21289;SDS011;10804;48.988;2.408;2024-03-08T06:15:21;0.10;;;0.10;;
21289;SDS011;10804;48.988;2.408;2024-03-08T06:17:48;0.10;;;0.10;;
21289;SDS011;10804;48.988;2.408;2024-03-08T06:20:16;0.10;;;0.10;;
21289;SDS011;10804;48.988;2.408;2024-03-08T06:22:44;0.10;;;0.10;;
21289;SDS011;10804;48.988;2.408;2024-03-08T06:25:12;0.10;;;0.10;;
21289;SDS011;10804;48.988;2.408;2024-03-08T06:27:39;0.10;;;0.10;;
21289;SDS011;10804;48.988;2.408;2024-03-08T06:30:08;0.10;;;0.10;;
21289;SDS011;10804;48.988;2.408;2024-03-08T06:32:36;0.10;;;0.10;;
21289;SDS011;10804;48.988;2.408;2024-03-08T06:35:06;0.10;;;0.10;;
21289;SDS011;10804;48.988;2.408;2024-03-08T06:37:36;0.10;;;0.10;;
21289;SDS011;10804;48.988;2.408;2024-03-08T06:40:05;0.10;;;0.10;;
21289;SDS011;10804;48.988;2.408;2024-03-08T06:42:35;0.10;;;0.10;;
21289;SDS011;10804;48.988;2.408;2024-03-08T06:45:03;0.10;;;0.10;;
21289;SDS011;10804;48.988;2.408;2024-03-08T06:47:31;0.10;;;0.10;;
21289;SDS011;10804;48.988;2.408;2024-03-08T06:49:59;0.10;;;0.10;;
21289;SDS011;10804;48.988;2.408;2024-03-08T06:52:26;0.10;;;0.10;;
21289;SDS011;10804;48.988;2.408;2024-03-08T06:54:53;0.10;;;0.10;;
21289;SDS011;10804;48.988;2.408;2024-03-08T06:57:22;0.10;;;0.10;;
21289;SDS011;10804;48.988;2.408;2024-03-08T06:59:55;0.10;;;0.10;;
21289;SDS011;10804;48.988;2.408;2024-03-08T07:02:23;0.10;;;0.10;;
21289;SDS011;10804;48.988;2.408;2024-03-08T07:04:51;0.10;;;0.10;;
21289;SDS011;10804;48.988;2.408;2024-03-08T07:07:18;0.10;;;0.10;;
21289;SDS011;10804;48.988;2.408;2024-03-08T07:09:46;0.10;;;0.10;;
21289;SDS011;10804;48.988;2.408;2024-03-08T07:12:15;0.10;;;0.10;;
21289;SDS011;10804;48.988;2.408;2024-03-08T07:14:44;0.10;;;0.10;;
21289;SDS011;10804;48.988;2.408;2024-03-08T07:17:11;0.10;;;0.10;;
21289;SDS011;10804;48.988;2.408;2024-03-08T07:19:39;0.10;;;0.10;;
21289;SDS011;10804;48.988;2.408;2024-03-08T07:22:06;0.10;;;0.10;;
21289;SDS011;10804;48.988;2.408;2024-03-08T07:24:35;0.10;;;0.10;;
21289;SDS011;10804;48.988;2.408;2024-03-08T07:27:21;0.10;;;0.10;;
21289;SDS011;10804;48.988;2.408;2024-03-08T07:29:50;0.10;;;0.10;;
21289;SDS011;10804;48.988;2.408;2024-03-08T07:32:18;0.10;;;0.10;;
21289;SDS011;10804;48.988;2.408;2024-03-08T07:34:47;0.10;;;0.10;;
21289;SDS011;10804;48.988;2.408;2024-03-08T07:37:16;0.10;;;0.10;;
21289;SDS011;10804;48.988;2.408;2024-03-08T07:39:45;0.10;;;0.10;;
21289;SDS011;10804;48.988;2.408;2024-03-08T07:42:12;0.10;;;0.10;;
21289;SDS011;10804;48.988;2.408;2024-03-08T07:44:39;0.15;;;0.15;;
21289;SDS011;10804;48.988;2.408;2024-03-08T07:47:08;0.10;;;0.10;;
21289;SDS011;10804;48.988;2.408;2024-03-08T07:49:35;0.10;;;0.10;;
21289;SDS011;10804;48.988;2.408;2024-03-08T07:52:03;0.10;;;0.10;;
21289;SDS011;10804;48.988;2.408;2024-03-08T07:54:33;0.10;;;0.10;;
21289;SDS011;10804;48.988;2.408;2024-03-08T07:57:01;0.20;;;0.20;;
21289;SDS011;10804;48.988;2.408;2024-03-08T07:59:29;0.10;;;0.10;;
21289;SDS011;10804;48.988;2.408;2024-03-08T08:01:56;0.10;;;0.10;;
21289;SDS011;10804;48.988;2.408;2024-03-08T08:04:26;0.10;;;0.10;;
21289;SDS011;10804;48.988;2.408;2024-03-08T08:06:54;0.10;;;0.10;;
21289;SDS011;10804;48.988;2.408;2024-03-08T08:09:21;0.10;;;0.10;;
21289;SDS011;10804;48.988;2.408;2024-03-08T08:12:00;0.10;;;0.10;;
21289;SDS011;10804;48.988;2.408;2024-03-08T08:14:28;0.10;;;0.10;;
21289;SDS011;10804;48.988;2.408;2024-03-08T08:16:56;0.10;;;0.10;;
21289;SDS011;10804;48.988;2.408;2024-03-08T08:19:27;0.10;;;0.10;;
21289;SDS011;10804;48.988;2.408;2024-03-08T08:21:55;0.10;;;0.10;;
21289;SDS011;10804;48.988;2.408;2024-03-08T08:24:23;0.10;;;0.10;;
21289;SDS011;10804;48.988;2.408;2024-03-08T08:26:51;0.10;;;0.10;;
21289;SDS011;10804;48.988;2.408;2024-03-08T08:29:19;0.10;;;0.10;;
21289;SDS011;10804;48.988;2.408;2024-03-08T08:31:46;0.10;;;0.10;;
21289;SDS011;10804;48.988;2.408;2024-03-08T08:34:15;0.10;;;0.10;;
21289;SDS011;10804;48.988;2.408;2024-03-08T08:36:46;0.10;;;0.10;;
21289;SDS011;10804;48.988;2.408;2024-03-08T08:39:13;0.10;;;0.10;;
21289;SDS011;10804;48.988;2.408;2024-03-08T08:41:41;0.10;;;0.10;;
21289;SDS011;10804;48.988;2.408;2024-03-08T08:44:08;0.10;;;0.10;;
21289;SDS011;10804;48.988;2.408;2024-03-08T08:46:37;0.10;;;0.10;;
21289;SDS011;10804;48.988;2.408;2024-03-08T08:49:05;0.10;;;0.10;;
21289;SDS011;10804;48.988;2.408;2024-03-08T08:51:36;0.10;;;0.10;;
21289;SDS011;10804;48.988;2.408;2024-03-08T08:54:05;0.10;;;0.10;;
21289;SDS011;10804;48.988;2.408;2024-03-08T08:56:33;0.10;;;0.10;;
21289;SDS011;10804;48.988;2.408;2024-03-08T08:59:01;0.10;;;0.10;;
21289;SDS011;10804;48.988;2.408;2024-03-08T09:01:29;0.10;;;0.10;;
21289;SDS011;10804;48.988;2.408;2024-03-08T09:03:56;0.10;;;0.10;;
21289;SDS011;10804;48.988;2.408;2024-03-08T09:06:24;0.10;;;0.10;;
21289;SDS011;10804;48.988;2.408;2024-03-08T09:08:51;0.10;;;0.10;;
21289;SDS011;10804;48.988;2.408;2024-03-08T09:11:21;0.10;;;0.10;;
21289;SDS011;10804;48.988;2.408;2024-03-08T09:13:48;0.10;;;0.10;;
21289;SDS011;10804;48.988;2.408;2024-03-08T09:16:15;0.10;;;0.10;;
21289;SDS011;10804;48.988;2.408;2024-03-08T09:18:43;0.10;;;0.10;;
21289;SDS011;10804;48.988;2.408;2024-03-08T09:21:10;0.10;;;0.10;;
21289;SDS011;10804;48.988;2.408;2024-03-08T09:23:39;0.10;;;0.10;;
21289;SDS011;10804;48.988;2.408;2024-03-08T09:26:07;0.10;;;0.10;;
21289;SDS011;10804;48.988;2.408;2024-03-08T09:28:36;0.10;;;0.10;;
21289;SDS011;10804;48.988;2.408;2024-03-08T09:31:04;0.10;;;0.10;;
21289;SDS011;10804;48.988;2.408;2024-03-08T09:33:32;0.10;;;0.10;;
21289;SDS011;10804;48.988;2.408;2024-03-08T09:35:59;0.10;;;0.10;;
21289;SDS011;10804;48.988;2.408;2024-03-08T09:38:26;0.10;;;0.10;;
21289;SDS011;10804;48.988;2.408;2024-03-08T09:40:54;0.10;;;0.10;;
21289;SDS011;10804;48.988;2.408;2024-03-08T09:43:23;0.10;;;0.10;;
21289;SDS011;10804;48.988;2.408;2024-03-08T09:45:51;0.10;;;0.10;;
21289;SDS011;10804;48.988;2.408;2024-03-08T09:48:19;0.10;;;0.10;;
21289;SDS011;10804;48.988;2.408;2024-03-08T09:50:47;0.10;;;0.10;;
21289;SDS011;10804;48.988;2.408;2024-03-08T09:53:15;0.10;;;0.10;;
21289;SDS011;10804;48.988;2.408;2024-03-08T09:55:42;0.10;;;0.10;;
21289;SDS011;10804;48.988;2.408;2024-03-08T09:58:11;0.10;;;0.10;;
21289;SDS011;10804;48.988;2.408;2024-03-08T10:01:03;0.10;;;0.10;;
21289;SDS011;10804;48.988;2.408;2024-03-08T10:03:32;0.10;;;0.10;;
21289;SDS011;10804;48.988;2.408;2024-03-08T10:06:00;0.10;;;0.10;;
21289;SDS011;10804;48.988;2.408;2024-03-08T10:08:28;0.10;;;0.10;;
21289;SDS011;10804;48.988;2.408;2024-03-08T10:10:56;0.08;;;0.08;;
21289;SDS011;10804;48.988;2.408;2024-03-08T10:13:24;0.10;;;0.10;;
21289;SDS011;10804;48.988;2.408;2024-03-08T10:15:53;0.10;;;0.10;;
21289;SDS011;10804;48.988;2.408;2024-03-08T10:18:22;0.10;;;0.10;;
21289;SDS011;10804;48.988;2.408;2024-03-08T10:21:01;0.10;;;0.10;;
21289;SDS011;10804;48.988;2.408;2024-03-08T10:23:31;0.10;;;0.10;;
21289;SDS011;10804;48.988;2.408;2024-03-08T10:26:08;0.10;;;0.10;;
21289;SDS011;10804;48.988;2.408;2024-03-08T10:28:37;0.10;;;0.10;;
21289;SDS011;10804;48.988;2.408;2024-03-08T10:31:04;0.10;;;0.10;;
21289;SDS011;10804;48.988;2.408;2024-03-08T10:33:33;0.10;;;0.10;;
21289;SDS011;10804;48.988;2.408;2024-03-08T10:36:01;0.10;;;0.10;;
21289;SDS011;10804;48.988;2.408;2024-03-08T10:38:29;0.10;;;0.10;;
21289;SDS011;10804;48.988;2.408;2024-03-08T10:40:59;0.10;;;0.10;;
21289;SDS011;10804;48.988;2.408;2024-03-08T10:43:27;0.00;;;0.00;;
21289;SDS011;10804;48.988;2.408;2024-03-08T10:46:06;0.10;;;0.10;;
21289;SDS011;10804;48.988;2.408;2024-03-08T10:48:45;0.10;;;0.10;;
21289;SDS011;10804;48.988;2.408;2024-03-08T10:51:16;0.00;;;0.00;;
21289;SDS011;10804;48.988;2.408;2024-03-08T10:53:46;0.10;;;0.10;;
21289;SDS011;10804;48.988;2.408;2024-03-08T10:56:17;0.10;;;0.10;;
21289;SDS011;10804;48.988;2.408;2024-03-08T10:58:44;0.10;;;0.10;;
21289;SDS011;10804;48.988;2.408;2024-03-08T11:01:14;0.10;;;0.10;;
21289;SDS011;10804;48.988;2.408;2024-03-08T11:03:45;0.10;;;0.10;;
21289;SDS011;10804;48.988;2.408;2024-03-08T11:06:19;0.10;;;0.10;;
21289;SDS011;10804;48.988;2.408;2024-03-08T11:08:50;0.03;;;0.03;;
21289;SDS011;10804;48.988;2.408;2024-03-08T11:11:24;0.08;;;0.08;;
21289;SDS011;10804;48.988;2.408;2024-03-08T11:13:57;0.00;;;0.00;;
21289;SDS011;10804;48.988;2.408;2024-03-08T11:16:37;0.10;;;0.10;;
21289;SDS011;10804;48.988;2.408;2024-03-08T11:21:57;0.10;;;0.10;;
21289;SDS011;10804;48.988;2.408;2024-03-08T11:24:25;0.10;;;0.10;;
21289;SDS011;10804;48.988;2.408;2024-03-08T11:26:57;0.00;;;0.00;;
21289;SDS011;10804;48.988;2.408;2024-03-08T11:29:33;0.08;;;0.08;;
21289;SDS011;10804;48.988;2.408;2024-03-08T11:32:06;0.10;;;0.10;;
21289;SDS011;10804;48.988;2.408;2024-03-08T11:34:36;0.00;;;0.00;;
21289;SDS011;10804;48.988;2.408;2024-03-08T11:37:04;0.00;;;0.00;;
21289;SDS011;10804;48.988;2.408;2024-03-08T11:39:35;0.10;;;0.10;;
21289;SDS011;10804;48.988;2.408;2024-03-08T11:42:04;0.10;;;0.10;;
21289;SDS011;10804;48.988;2.408;2024-03-08T11:44:32;0.10;;;0.10;;
21289;SDS011;10804;48.988;2.408;2024-03-08T11:47:00;0.03;;;0.03;;
21289;SDS011;10804;48.988;2.408;2024-03-08T11:49:27;0.00;;;0.00;;
21289;SDS011;10804;48.988;2.408;2024-03-08T11:51:56;0.00;;;0.00;;
21289;SDS011;10804;48.988;2.408;2024-03-08T11:54:23;0.10;;;0.10;;
21289;SDS011;10804;48.988;2.408;2024-03-08T11:56:51;0.10;;;0.10;;
21289;SDS011;10804;48.988;2.408;2024-03-08T11:59:20;0.10;;;0.10;;
21289;SDS011;10804;48.988;2.408;2024-03-08T12:02:01;0.10;;;0.10;;
21289;SDS011;10804;48.988;2.408;2024-03-08T12:04:29;0.10;;;0.10;;
21289;SDS011;10804;48.988;2.408;2024-03-08T12:07:00;0.10;;;0.10;;
21289;SDS011;10804;48.988;2.408;2024-03-08T12:09:34;0.00;;;0.00;;
21289;SDS011;10804;48.988;2.408;2024-03-08T12:12:02;0.00;;;0.00;;
21289;SDS011;10804;48.988;2.408;2024-03-08T12:14:31;0.10;;;0.10;;
21289;SDS011;10804;48.988;2.408;2024-03-08T12:17:00;0.00;;;0.00;;
21289;SDS011;10804;48.988;2.408;2024-03-08T12:19:27;0.00;;;0.00;;
21289;SDS011;10804;48.988;2.408;2024-03-08T12:21:55;0.00;;;0.00;;
21289;SDS011;10804;48.988;2.408;2024-03-08T12:24:24;0.00;;;0.00;;
21289;SDS011;10804;48.988;2.408;2024-03-08T12:26:53;0.00;;;0.00;;
21289;SDS011;10804;48.988;2.408;2024-03-08T12:29:24;0.00;;;0.00;;
21289;SDS011;10804;48.988;2.408;2024-03-08T12:31:53;0.00;;;0.00;;
21289;SDS011;10804;48.988;2.408;2024-03-08T12:34:24;0.00;;;0.00;;
21289;SDS011;10804;48.988;2.408;2024-03-08T12:36:53;0.00;;;0.00;;
21289;SDS011;10804;48.988;2.408;2024-03-08T12:39:21;0.00;;;0.00;;
21289;SDS011;10804;48.988;2.408;2024-03-08T12:41:53;0.00;;;0.00;;
21289;SDS011;10804;48.988;2.408;2024-03-08T12:44:22;0.00;;;0.00;;
21289;SDS011;10804;48.988;2.408;2024-03-08T12:46:51;0.00;;;0.00;;
21289;SDS011;10804;48.988;2.408;2024-03-08T12:49:19;0.00;;;0.00;;
21289;SDS011;10804;48.988;2.408;2024-03-08T12:51:48;0.00;;;0.00;;
21289;SDS011;10804;48.988;2.408;2024-03-08T12:54:16;0.00;;;0.00;;
21289;SDS011;10804;48.988;2.408;2024-03-08T12:56:43;0.00;;;0.00;;
21289;SDS011;10804;48.988;2.408;2024-03-08T12:59:12;0.00;;;0.00;;
21289;SDS011;10804;48.988;2.408;2024-03-08T13:01:39;0.00;;;0.00;;
21289;SDS011;10804;48.988;2.408;2024-03-08T13:04:06;0.00;;;0.00;;
21289;SDS011;10804;48.988;2.408;2024-03-08T13:06:37;0.00;;;0.00;;
21289;SDS011;10804;48.988;2.408;2024-03-08T13:09:04;0.00;;;0.00;;
21289;SDS011;10804;48.988;2.408;2024-03-08T13:11:31;0.00;;;0.00;;
21289;SDS011;10804;48.988;2.408;2024-03-08T13:14:02;0.00;;;0.00;;
21289;SDS011;10804;48.988;2.408;2024-03-08T13:16:32;0.00;;;0.00;;
21289;SDS011;10804;48.988;2.408;2024-03-08T13:19:01;0.00;;;0.00;;
21289;SDS011;10804;48.988;2.408;2024-03-08T13:21:28;0.00;;;0.00;;
21289;SDS011;10804;48.988;2.408;2024-03-08T13:23:56;0.00;;;0.00;;
21289;SDS011;10804;48.988;2.408;2024-03-08T13:26:25;0.00;;;0.00;;
21289;SDS011;10804;48.988;2.408;2024-03-08T13:28:58;0.00;;;0.00;;
21289;SDS011;10804;48.988;2.408;2024-03-08T13:31:25;0.00;;;0.00;;
21289;SDS011;10804;48.988;2.408;2024-03-08T13:33:54;0.00;;;0.00;;
21289;SDS011;10804;48.988;2.408;2024-03-08T13:36:24;0.00;;;0.00;;
21289;SDS011;10804;48.988;2.408;2024-03-08T13:38:55;0.00;;;0.00;;
21289;SDS011;10804;48.988;2.408;2024-03-08T13:41:24;0.00;;;0.00;;
21289;SDS011;10804;48.988;2.408;2024-03-08T13:43:52;0.00;;;0.00;;
21289;SDS011;10804;48.988;2.408;2024-03-08T13:46:21;0.00;;;0.00;;
21289;SDS011;10804;48.988;2.408;2024-03-08T13:48:50;0.00;;;0.00;;
21289;SDS011;10804;48.988;2.408;2024-03-08T13:51:20;0.00;;;0.00;;
21289;SDS011;10804;48.988;2.408;2024-03-08T13:53:51;0.00;;;0.00;;
21289;SDS011;10804;48.988;2.408;2024-03-08T13:56:18;0.00;;;0.00;;
21289;SDS011;10804;48.988;2.408;2024-03-08T13:58:46;0.00;;;0.00;;
21289;SDS011;10804;48.988;2.408;2024-03-08T14:01:13;0.00;;;0.00;;
21289;SDS011;10804;48.988;2.408;2024-03-08T14:03:40;0.00;;;0.00;;
21289;SDS011;10804;48.988;2.408;2024-03-08T14:06:08;0.00;;;0.00;;
21289;SDS011;10804;48.988;2.408;2024-03-08T14:08:38;0.00;;;0.00;;
21289;SDS011;10804;48.988;2.408;2024-03-08T14:11:05;0.00;;;0.00;;
21289;SDS011;10804;48.988;2.408;2024-03-08T14:13:40;0.00;;;0.00;;
21289;SDS011;10804;48.988;2.408;2024-03-08T14:16:08;0.00;;;0.00;;
21289;SDS011;10804;48.988;2.408;2024-03-08T14:18:36;0.00;;;0.00;;
21289;SDS011;10804;48.988;2.408;2024-03-08T14:21:03;0.00;;;0.00;;
21289;SDS011;10804;48.988;2.408;2024-03-08T14:23:31;0.00;;;0.00;;
21289;SDS011;10804;48.988;2.408;2024-03-08T14:26:00;0.00;;;0.00;;
21289;SDS011;10804;48.988;2.408;2024-03-08T14:28:28;0.00;;;0.00;;
21289;SDS011;10804;48.988;2.408;2024-03-08T14:30:55;0.00;;;0.00;;
21289;SDS011;10804;48.988;2.408;2024-03-08T14:33:23;0.00;;;0.00;;
21289;SDS011;10804;48.988;2.408;2024-03-08T14:35:51;0.00;;;0.00;;
21289;SDS011;10804;48.988;2.408;2024-03-08T14:38:18;0.00;;;0.00;;
21289;SDS011;10804;48.988;2.408;2024-03-08T14:40:46;0.00;;;0.00;;
21289;SDS011;10804;48.988;2.408;2024-03-08T14:43:15;0.00;;;0.00;;
21289;SDS011;10804;48.988;2.408;2024-03-08T14:45:47;0.00;;;0.00;;
21289;SDS011;10804;48.988;2.408;2024-03-08T14:48:14;0.00;;;0.00;;
21289;SDS011;10804;48.988;2.408;2024-03-08T14:50:42;0.00;;;0.00;;
21289;SDS011;10804;48.988;2.408;2024-03-08T14:53:10;0.00;;;0.00;;
21289;SDS011;10804;48.988;2.408;2024-03-08T14:55:41;0.00;;;0.00;;
21289;SDS011;10804;48.988;2.408;2024-03-08T14:58:09;0.00;;;0.00;;
21289;SDS011;10804;48.988;2.408;2024-03-08T15:00:38;0.00;;;0.00;;